sensor_id;sensor_type;location;lat;lon;timestamp;P1;durP1;ratioP1;P2;durP2;ratioP2
61785;SDS011;47692;53.714;11.372;2023-11-22T00:01:03;3.08;;;1.70;;
61785;SDS011;47692;53.714;11.372;2023-11-22T00:03:38;3.05;;;1.67;;
61785;SDS011;47692;53.714;11.372;2023-11-22T00:06:04;3.03;;;1.90;;
61785;SDS011;47692;53.714;11.372;2023-11-22T00:08:30;2.90;;;1.50;;
61785;SDS011;47692;53.714;11.372;2023-11-22T00:10:55;3.60;;;1.85;;
61785;SDS011;47692;53.714;11.372;2023-11-22T00:13:21;4.20;;;2.28;;
61785;SDS011;47692;53.714;11.372;2023-11-22T00:15:46;6.07;;;1.75;;
61785;SDS011;47692;53.714;11.372;2023-11-22T00:18:11;4.53;;;1.98;;
61785;SDS011;47692;53.714;11.372;2023-11-22T00:20:37;3.05;;;1.80;;
61785;SDS011;47692;53.714;11.372;2023-11-22T00:23:02;3.47;;;1.63;;
61785;SDS011;47692;53.714;11.372;2023-11-22T00:25:30;3.85;;;1.60;;
61785;SDS011;47692;53.714;11.372;2023-11-22T00:27:56;4.35;;;1.83;;
61785;SDS011;47692;53.714;11.372;2023-11-22T00:30:21;2.85;;;1.85;;
61785;SDS011;47692;53.714;11.372;2023-11-22T00:32:48;5.03;;;2.20;;
61785;SDS011;47692;53.714;11.372;2023-11-22T00:35:14;4.05;;;1.70;;
61785;SDS011;47692;53.714;11.372;2023-11-22T00:37:39;3.33;;;1.70;;
61785;SDS011;47692;53.714;11.372;2023-11-22T00:40:05;3.50;;;1.52;;
61785;SDS011;47692;53.714;11.372;2023-11-22T00:42:40;4.22;;;2.10;;
61785;SDS011;47692;53.714;11.372;2023-11-22T00:45:09;3.85;;;1.80;;
61785;SDS011;47692;53.714;11.372;2023-11-22T00:47:35;4.03;;;1.90;;
61785;SDS011;47692;53.714;11.372;2023-11-22T00:50:01;2.75;;;1.80;;
61785;SDS011;47692;53.714;11.372;2023-11-22T00:52:29;4.00;;;1.45;;
61785;SDS011;47692;53.714;11.372;2023-11-22T00:54:55;3.47;;;1.85;;
61785;SDS011;47692;53.714;11.372;2023-11-22T00:57:20;2.97;;;1.63;;
61785;SDS011;47692;53.714;11.372;2023-11-22T00:59:45;5.05;;;1.83;;
61785;SDS011;47692;53.714;11.372;2023-11-22T01:02:11;3.33;;;2.00;;
61785;SDS011;47692;53.714;11.372;2023-11-22T01:04:36;3.50;;;1.90;;
61785;SDS011;47692;53.714;11.372;2023-11-22T01:07:02;3.55;;;1.95;;
61785;SDS011;47692;53.714;11.372;2023-11-22T01:09:34;6.03;;;2.10;;
61785;SDS011;47692;53.714;11.372;2023-11-22T01:12:00;4.50;;;2.28;;
61785;SDS011;47692;53.714;11.372;2023-11-22T01:14:26;6.35;;;1.85;;
61785;SDS011;47692;53.714;11.372;2023-11-22T01:16:52;3.03;;;1.70;;
61785;SDS011;47692;53.714;11.372;2023-11-22T01:19:19;4.18;;;2.10;;
61785;SDS011;47692;53.714;11.372;2023-11-22T01:21:45;4.38;;;1.95;;
61785;SDS011;47692;53.714;11.372;2023-11-22T01:24:10;4.45;;;2.05;;
61785;SDS011;47692;53.714;11.372;2023-11-22T01:26:36;3.00;;;1.52;;
61785;SDS011;47692;53.714;11.372;2023-11-22T01:29:01;4.85;;;2.33;;
61785;SDS011;47692;53.714;11.372;2023-11-22T01:31:27;3.60;;;1.88;;
61785;SDS011;47692;53.714;11.372;2023-11-22T01:33:53;4.05;;;2.30;;
61785;SDS011;47692;53.714;11.372;2023-11-22T01:36:19;3.33;;;1.83;;
61785;SDS011;47692;53.714;11.372;2023-11-22T01:38:44;3.03;;;2.00;;
61785;SDS011;47692;53.714;11.372;2023-11-22T01:41:11;3.42;;;1.90;;
61785;SDS011;47692;53.714;11.372;2023-11-22T01:43:39;3.72;;;2.03;;
61785;SDS011;47692;53.714;11.372;2023-11-22T01:46:09;8.52;;;2.13;;
61785;SDS011;47692;53.714;11.372;2023-11-22T01:48:40;4.20;;;1.92;;
61785;SDS011;47692;53.714;11.372;2023-11-22T01:51:06;3.03;;;1.60;;
61785;SDS011;47692;53.714;11.372;2023-11-22T01:53:33;3.65;;;1.67;;
61785;SDS011;47692;53.714;11.372;2023-11-22T01:55:59;3.33;;;2.03;;
61785;SDS011;47692;53.714;11.372;2023-11-22T01:58:25;4.20;;;1.55;;
61785;SDS011;47692;53.714;11.372;2023-11-22T02:00:52;6.75;;;1.92;;
61785;SDS011;47692;53.714;11.372;2023-11-22T02:03:17;5.50;;;1.88;;
61785;SDS011;47692;53.714;11.372;2023-11-22T02:05:44;2.72;;;1.67;;
61785;SDS011;47692;53.714;11.372;2023-11-22T02:08:10;3.78;;;1.50;;
61785;SDS011;47692;53.714;11.372;2023-11-22T02:10:36;3.33;;;1.58;;
61785;SDS011;47692;53.714;11.372;2023-11-22T02:13:02;3.78;;;1.80;;
61785;SDS011;47692;53.714;11.372;2023-11-22T02:15:30;3.22;;;1.75;;
61785;SDS011;47692;53.714;11.372;2023-11-22T02:17:56;4.75;;;1.85;;
61785;SDS011;47692;53.714;11.372;2023-11-22T02:20:22;3.70;;;1.90;;
61785;SDS011;47692;53.714;11.372;2023-11-22T02:22:47;3.65;;;2.08;;
61785;SDS011;47692;53.714;11.372;2023-11-22T02:25:13;2.90;;;1.90;;
61785;SDS011;47692;53.714;11.372;2023-11-22T02:27:40;3.20;;;1.60;;
61785;SDS011;47692;53.714;11.372;2023-11-22T02:30:07;3.58;;;1.67;;
61785;SDS011;47692;53.714;11.372;2023-11-22T02:32:33;3.83;;;2.15;;
61785;SDS011;47692;53.714;11.372;2023-11-22T02:34:58;3.03;;;1.38;;
61785;SDS011;47692;53.714;11.372;2023-11-22T02:37:24;3.53;;;1.92;;
61785;SDS011;47692;53.714;11.372;2023-11-22T02:40:05;2.47;;;1.45;;
61785;SDS011;47692;53.714;11.372;2023-11-22T02:42:57;5.38;;;1.90;;
61785;SDS011;47692;53.714;11.372;2023-11-22T02:45:26;4.15;;;1.90;;
61785;SDS011;47692;53.714;11.372;2023-11-22T02:47:53;3.85;;;1.83;;
61785;SDS011;47692;53.714;11.372;2023-11-22T02:50:19;3.67;;;1.65;;
61785;SDS011;47692;53.714;11.372;2023-11-22T02:52:45;3.15;;;1.98;;
61785;SDS011;47692;53.714;11.372;2023-11-22T02:55:10;3.33;;;1.73;;
61785;SDS011;47692;53.714;11.372;2023-11-22T02:57:36;2.60;;;1.88;;
61785;SDS011;47692;53.714;11.372;2023-11-22T03:00:05;4.72;;;1.95;;
61785;SDS011;47692;53.714;11.372;2023-11-22T03:02:33;5.18;;;1.80;;
61785;SDS011;47692;53.714;11.372;2023-11-22T03:04:58;3.55;;;2.20;;
61785;SDS011;47692;53.714;11.372;2023-11-22T03:07:24;3.70;;;2.53;;
61785;SDS011;47692;53.714;11.372;2023-11-22T03:09:50;4.25;;;1.95;;
61785;SDS011;47692;53.714;11.372;2023-11-22T03:12:16;4.53;;;2.00;;
61785;SDS011;47692;53.714;11.372;2023-11-22T03:14:41;6.00;;;2.53;;
61785;SDS011;47692;53.714;11.372;2023-11-22T03:17:07;4.55;;;2.53;;
61785;SDS011;47692;53.714;11.372;2023-11-22T03:19:33;3.13;;;2.03;;
61785;SDS011;47692;53.714;11.372;2023-11-22T03:21:59;3.78;;;2.22;;
61785;SDS011;47692;53.714;11.372;2023-11-22T03:24:25;3.28;;;1.83;;
61785;SDS011;47692;53.714;11.372;2023-11-22T03:26:50;4.78;;;2.40;;
61785;SDS011;47692;53.714;11.372;2023-11-22T03:29:17;6.78;;;2.40;;
61785;SDS011;47692;53.714;11.372;2023-11-22T03:31:43;4.53;;;2.70;;
61785;SDS011;47692;53.714;11.372;2023-11-22T03:34:09;5.60;;;2.83;;
61785;SDS011;47692;53.714;11.372;2023-11-22T03:36:34;5.22;;;2.30;;
61785;SDS011;47692;53.714;11.372;2023-11-22T03:38:59;5.05;;;2.63;;
61785;SDS011;47692;53.714;11.372;2023-11-22T03:41:25;4.00;;;2.40;;
61785;SDS011;47692;53.714;11.372;2023-11-22T03:43:50;4.35;;;2.10;;
61785;SDS011;47692;53.714;11.372;2023-11-22T03:46:15;4.30;;;2.40;;
61785;SDS011;47692;53.714;11.372;2023-11-22T03:48:41;4.38;;;2.85;;
61785;SDS011;47692;53.714;11.372;2023-11-22T03:51:06;5.20;;;2.95;;
61785;SDS011;47692;53.714;11.372;2023-11-22T03:53:31;5.85;;;2.80;;
61785;SDS011;47692;53.714;11.372;2023-11-22T03:55:57;5.00;;;2.60;;
61785;SDS011;47692;53.714;11.372;2023-11-22T03:58:22;6.45;;;2.90;;
61785;SDS011;47692;53.714;11.372;2023-11-22T04:00:48;6.30;;;2.67;;
61785;SDS011;47692;53.714;11.372;2023-11-22T04:03:13;6.93;;;2.60;;
61785;SDS011;47692;53.714;11.372;2023-11-22T04:05:39;5.78;;;3.17;;
61785;SDS011;47692;53.714;11.372;2023-11-22T04:08:04;7.00;;;2.80;;
61785;SDS011;47692;53.714;11.372;2023-11-22T04:10:30;5.50;;;2.88;;
61785;SDS011;47692;53.714;11.372;2023-11-22T04:12:55;6.25;;;3.42;;
61785;SDS011;47692;53.714;11.372;2023-11-22T04:15:21;7.40;;;3.10;;
61785;SDS011;47692;53.714;11.372;2023-11-22T04:17:47;5.80;;;3.17;;
61785;SDS011;47692;53.714;11.372;2023-11-22T04:20:12;5.78;;;3.20;;
61785;SDS011;47692;53.714;11.372;2023-11-22T04:22:42;6.45;;;3.55;;
61785;SDS011;47692;53.714;11.372;2023-11-22T04:25:12;6.07;;;3.17;;
61785;SDS011;47692;53.714;11.372;2023-11-22T04:27:41;6.05;;;3.60;;
61785;SDS011;47692;53.714;11.372;2023-11-22T04:30:07;7.25;;;4.15;;
61785;SDS011;47692;53.714;11.372;2023-11-22T04:32:35;7.07;;;3.67;;
61785;SDS011;47692;53.714;11.372;2023-11-22T04:35:01;6.82;;;3.72;;
61785;SDS011;47692;53.714;11.372;2023-11-22T04:37:29;6.07;;;3.33;;
61785;SDS011;47692;53.714;11.372;2023-11-22T04:39:57;7.40;;;3.70;;
61785;SDS011;47692;53.714;11.372;2023-11-22T04:42:26;6.95;;;3.75;;
61785;SDS011;47692;53.714;11.372;2023-11-22T04:44:52;7.60;;;4.18;;
61785;SDS011;47692;53.714;11.372;2023-11-22T04:47:18;5.80;;;3.65;;
61785;SDS011;47692;53.714;11.372;2023-11-22T04:49:44;8.32;;;4.47;;
61785;SDS011;47692;53.714;11.372;2023-11-22T04:52:09;9.75;;;4.43;;
61785;SDS011;47692;53.714;11.372;2023-11-22T04:54:35;7.82;;;4.15;;
61785;SDS011;47692;53.714;11.372;2023-11-22T04:57:00;7.70;;;4.10;;
61785;SDS011;47692;53.714;11.372;2023-11-22T04:59:25;8.43;;;4.07;;
61785;SDS011;47692;53.714;11.372;2023-11-22T05:01:51;6.13;;;4.15;;
61785;SDS011;47692;53.714;11.372;2023-11-22T05:04:16;9.02;;;4.38;;
61785;SDS011;47692;53.714;11.372;2023-11-22T05:06:43;6.78;;;4.10;;
61785;SDS011;47692;53.714;11.372;2023-11-22T05:09:09;7.15;;;4.20;;
61785;SDS011;47692;53.714;11.372;2023-11-22T05:11:36;7.90;;;4.20;;
61785;SDS011;47692;53.714;11.372;2023-11-22T05:14:01;7.10;;;4.30;;
61785;SDS011;47692;53.714;11.372;2023-11-22T05:16:26;9.25;;;4.50;;
61785;SDS011;47692;53.714;11.372;2023-11-22T05:18:52;8.55;;;4.50;;
61785;SDS011;47692;53.714;11.372;2023-11-22T05:21:18;7.35;;;4.05;;
61785;SDS011;47692;53.714;11.372;2023-11-22T05:23:43;6.68;;;3.85;;
61785;SDS011;47692;53.714;11.372;2023-11-22T05:26:08;8.02;;;4.05;;
61785;SDS011;47692;53.714;11.372;2023-11-22T05:28:34;10.73;;;4.80;;
61785;SDS011;47692;53.714;11.372;2023-11-22T05:30:59;8.73;;;4.90;;
61785;SDS011;47692;53.714;11.372;2023-11-22T05:33:25;7.30;;;4.13;;
61785;SDS011;47692;53.714;11.372;2023-11-22T05:35:50;7.80;;;4.70;;
61785;SDS011;47692;53.714;11.372;2023-11-22T05:38:16;6.68;;;3.90;;
61785;SDS011;47692;53.714;11.372;2023-11-22T05:40:41;7.75;;;3.90;;
61785;SDS011;47692;53.714;11.372;2023-11-22T05:43:08;6.63;;;3.63;;
61785;SDS011;47692;53.714;11.372;2023-11-22T05:45:34;6.50;;;4.18;;
61785;SDS011;47692;53.714;11.372;2023-11-22T05:48:00;7.75;;;3.55;;
61785;SDS011;47692;53.714;11.372;2023-11-22T05:50:26;7.85;;;4.10;;
61785;SDS011;47692;53.714;11.372;2023-11-22T05:52:51;7.63;;;3.70;;
61785;SDS011;47692;53.714;11.372;2023-11-22T05:55:17;8.23;;;4.03;;
61785;SDS011;47692;53.714;11.372;2023-11-22T05:57:43;8.95;;;4.32;;
61785;SDS011;47692;53.714;11.372;2023-11-22T06:00:08;7.53;;;4.18;;
61785;SDS011;47692;53.714;11.372;2023-11-22T06:02:34;9.05;;;4.30;;
61785;SDS011;47692;53.714;11.372;2023-11-22T06:05:02;8.70;;;3.70;;
61785;SDS011;47692;53.714;11.372;2023-11-22T06:07:28;6.65;;;3.50;;
61785;SDS011;47692;53.714;11.372;2023-11-22T06:09:54;7.47;;;3.47;;
61785;SDS011;47692;53.714;11.372;2023-11-22T06:12:19;7.10;;;3.70;;
61785;SDS011;47692;53.714;11.372;2023-11-22T06:14:45;6.60;;;3.80;;
61785;SDS011;47692;53.714;11.372;2023-11-22T06:17:11;5.97;;;3.58;;
61785;SDS011;47692;53.714;11.372;2023-11-22T06:19:37;7.82;;;3.75;;
61785;SDS011;47692;53.714;11.372;2023-11-22T06:22:02;8.52;;;3.75;;
61785;SDS011;47692;53.714;11.372;2023-11-22T06:24:28;7.10;;;3.88;;
61785;SDS011;47692;53.714;11.372;2023-11-22T06:26:54;6.30;;;3.58;;
61785;SDS011;47692;53.714;11.372;2023-11-22T06:29:19;7.38;;;3.85;;
61785;SDS011;47692;53.714;11.372;2023-11-22T06:31:45;6.43;;;3.15;;
61785;SDS011;47692;53.714;11.372;2023-11-22T06:34:11;7.30;;;4.25;;
61785;SDS011;47692;53.714;11.372;2023-11-22T06:36:37;17.65;;;4.97;;
61785;SDS011;47692;53.714;11.372;2023-11-22T06:39:03;7.93;;;4.13;;
61785;SDS011;47692;53.714;11.372;2023-11-22T06:41:29;8.07;;;3.92;;
61785;SDS011;47692;53.714;11.372;2023-11-22T06:43:54;7.90;;;4.25;;
61785;SDS011;47692;53.714;11.372;2023-11-22T06:46:19;8.57;;;4.28;;
61785;SDS011;47692;53.714;11.372;2023-11-22T06:48:45;8.13;;;4.38;;
61785;SDS011;47692;53.714;11.372;2023-11-22T06:51:10;7.88;;;4.57;;
61785;SDS011;47692;53.714;11.372;2023-11-22T06:53:35;7.88;;;4.57;;
61785;SDS011;47692;53.714;11.372;2023-11-22T06:56:01;6.57;;;4.65;;
61785;SDS011;47692;53.714;11.372;2023-11-22T06:58:29;6.85;;;4.15;;
61785;SDS011;47692;53.714;11.372;2023-11-22T07:00:54;8.85;;;4.45;;
61785;SDS011;47692;53.714;11.372;2023-11-22T07:03:20;10.00;;;4.68;;
61785;SDS011;47692;53.714;11.372;2023-11-22T07:05:46;8.18;;;4.50;;
61785;SDS011;47692;53.714;11.372;2023-11-22T07:08:11;8.15;;;4.45;;
61785;SDS011;47692;53.714;11.372;2023-11-22T07:10:37;7.60;;;4.20;;
61785;SDS011;47692;53.714;11.372;2023-11-22T07:13:02;7.85;;;4.05;;
61785;SDS011;47692;53.714;11.372;2023-11-22T07:15:28;11.38;;;6.40;;
61785;SDS011;47692;53.714;11.372;2023-11-22T07:17:54;7.22;;;4.32;;
61785;SDS011;47692;53.714;11.372;2023-11-22T07:20:20;6.78;;;4.10;;
61785;SDS011;47692;53.714;11.372;2023-11-22T07:22:45;7.68;;;4.47;;
61785;SDS011;47692;53.714;11.372;2023-11-22T07:25:11;6.13;;;3.90;;
61785;SDS011;47692;53.714;11.372;2023-11-22T07:27:45;6.85;;;4.10;;
61785;SDS011;47692;53.714;11.372;2023-11-22T07:30:12;6.75;;;4.10;;
61785;SDS011;47692;53.714;11.372;2023-11-22T07:32:39;9.15;;;4.35;;
61785;SDS011;47692;53.714;11.372;2023-11-22T07:35:05;7.95;;;4.80;;
61785;SDS011;47692;53.714;11.372;2023-11-22T07:37:34;9.15;;;4.70;;
61785;SDS011;47692;53.714;11.372;2023-11-22T07:40:01;5.78;;;3.75;;
61785;SDS011;47692;53.714;11.372;2023-11-22T07:42:28;8.30;;;4.63;;
61785;SDS011;47692;53.714;11.372;2023-11-22T07:44:54;6.90;;;4.15;;
61785;SDS011;47692;53.714;11.372;2023-11-22T07:47:21;6.63;;;3.30;;
61785;SDS011;47692;53.714;11.372;2023-11-22T07:49:48;9.25;;;4.60;;
61785;SDS011;47692;53.714;11.372;2023-11-22T07:52:13;6.63;;;3.92;;
61785;SDS011;47692;53.714;11.372;2023-11-22T07:54:39;6.05;;;3.92;;
61785;SDS011;47692;53.714;11.372;2023-11-22T07:57:05;6.18;;;4.10;;
61785;SDS011;47692;53.714;11.372;2023-11-22T07:59:32;6.05;;;3.92;;
61785;SDS011;47692;53.714;11.372;2023-11-22T08:01:57;10.20;;;4.20;;
61785;SDS011;47692;53.714;11.372;2023-11-22T08:04:23;5.68;;;3.83;;
61785;SDS011;47692;53.714;11.372;2023-11-22T08:06:48;7.47;;;3.67;;
61785;SDS011;47692;53.714;11.372;2023-11-22T08:09:14;6.78;;;4.30;;
61785;SDS011;47692;53.714;11.372;2023-11-22T08:11:41;8.18;;;3.92;;
61785;SDS011;47692;53.714;11.372;2023-11-22T08:14:07;9.32;;;3.90;;
61785;SDS011;47692;53.714;11.372;2023-11-22T08:16:33;7.60;;;4.88;;
61785;SDS011;47692;53.714;11.372;2023-11-22T08:19:03;7.35;;;4.03;;
61785;SDS011;47692;53.714;11.372;2023-11-22T08:21:30;6.93;;;3.30;;
61785;SDS011;47692;53.714;11.372;2023-11-22T08:23:55;5.97;;;3.28;;
61785;SDS011;47692;53.714;11.372;2023-11-22T08:26:21;7.05;;;3.45;;
61785;SDS011;47692;53.714;11.372;2023-11-22T08:28:46;7.03;;;4.00;;
61785;SDS011;47692;53.714;11.372;2023-11-22T08:31:12;6.32;;;3.13;;
61785;SDS011;47692;53.714;11.372;2023-11-22T08:33:38;8.35;;;3.78;;
61785;SDS011;47692;53.714;11.372;2023-11-22T08:36:08;7.18;;;3.92;;
61785;SDS011;47692;53.714;11.372;2023-11-22T08:38:36;7.38;;;3.85;;
61785;SDS011;47692;53.714;11.372;2023-11-22T08:41:06;7.20;;;4.15;;
61785;SDS011;47692;53.714;11.372;2023-11-22T08:43:32;6.65;;;3.45;;
61785;SDS011;47692;53.714;11.372;2023-11-22T08:45:58;6.90;;;3.72;;
61785;SDS011;47692;53.714;11.372;2023-11-22T08:48:24;8.00;;;4.25;;
61785;SDS011;47692;53.714;11.372;2023-11-22T08:50:51;8.40;;;4.20;;
61785;SDS011;47692;53.714;11.372;2023-11-22T08:53:19;8.00;;;4.43;;
61785;SDS011;47692;53.714;11.372;2023-11-22T08:55:45;7.60;;;4.40;;
61785;SDS011;47692;53.714;11.372;2023-11-22T08:58:11;6.72;;;4.10;;
61785;SDS011;47692;53.714;11.372;2023-11-22T09:00:36;8.63;;;5.50;;
61785;SDS011;47692;53.714;11.372;2023-11-22T09:03:02;8.40;;;5.53;;
61785;SDS011;47692;53.714;11.372;2023-11-22T09:05:28;7.30;;;3.97;;
61785;SDS011;47692;53.714;11.372;2023-11-22T09:07:54;5.72;;;3.75;;
61785;SDS011;47692;53.714;11.372;2023-11-22T09:10:20;5.32;;;3.20;;
61785;SDS011;47692;53.714;11.372;2023-11-22T09:12:47;6.13;;;2.40;;
61785;SDS011;47692;53.714;11.372;2023-11-22T09:15:13;4.68;;;2.53;;
61785;SDS011;47692;53.714;11.372;2023-11-22T09:17:44;5.50;;;2.65;;
61785;SDS011;47692;53.714;11.372;2023-11-22T09:20:11;3.63;;;2.45;;
61785;SDS011;47692;53.714;11.372;2023-11-22T09:22:43;3.75;;;2.10;;
61785;SDS011;47692;53.714;11.372;2023-11-22T09:25:20;3.80;;;2.70;;
61785;SDS011;47692;53.714;11.372;2023-11-22T09:27:47;3.15;;;2.13;;
61785;SDS011;47692;53.714;11.372;2023-11-22T09:30:14;11.35;;;2.55;;
61785;SDS011;47692;53.714;11.372;2023-11-22T09:33:03;4.13;;;1.98;;
61785;SDS011;47692;53.714;11.372;2023-11-22T09:35:34;5.72;;;2.85;;
61785;SDS011;47692;53.714;11.372;2023-11-22T09:38:00;9.45;;;3.80;;
61785;SDS011;47692;53.714;11.372;2023-11-22T09:40:27;7.65;;;3.67;;
61785;SDS011;47692;53.714;11.372;2023-11-22T09:43:01;5.22;;;2.88;;
61785;SDS011;47692;53.714;11.372;2023-11-22T09:45:27;4.53;;;2.10;;
61785;SDS011;47692;53.714;11.372;2023-11-22T09:47:56;4.57;;;2.10;;
61785;SDS011;47692;53.714;11.372;2023-11-22T09:53:09;5.68;;;1.92;;
61785;SDS011;47692;53.714;11.372;2023-11-22T09:55:38;3.83;;;1.77;;
61785;SDS011;47692;53.714;11.372;2023-11-22T09:58:08;5.70;;;2.03;;
61785;SDS011;47692;53.714;11.372;2023-11-22T10:00:36;7.80;;;2.47;;
61785;SDS011;47692;53.714;11.372;2023-11-22T10:03:02;4.35;;;2.42;;
61785;SDS011;47692;53.714;11.372;2023-11-22T10:05:28;4.47;;;2.60;;
61785;SDS011;47692;53.714;11.372;2023-11-22T10:07:54;3.95;;;1.85;;
61785;SDS011;47692;53.714;11.372;2023-11-22T10:10:20;3.55;;;1.90;;
61785;SDS011;47692;53.714;11.372;2023-11-22T10:12:47;3.72;;;1.92;;
61785;SDS011;47692;53.714;11.372;2023-11-22T10:15:14;2.67;;;1.83;;
61785;SDS011;47692;53.714;11.372;2023-11-22T10:17:54;3.33;;;1.58;;
61785;SDS011;47692;53.714;11.372;2023-11-22T10:20:24;3.33;;;1.92;;
61785;SDS011;47692;53.714;11.372;2023-11-22T10:25:19;3.50;;;1.70;;
61785;SDS011;47692;53.714;11.372;2023-11-22T10:27:45;2.85;;;1.70;;
61785;SDS011;47692;53.714;11.372;2023-11-22T10:30:12;3.95;;;1.73;;
61785;SDS011;47692;53.714;11.372;2023-11-22T10:32:37;4.78;;;1.67;;
61785;SDS011;47692;53.714;11.372;2023-11-22T10:35:06;5.10;;;1.83;;
61785;SDS011;47692;53.714;11.372;2023-11-22T10:37:32;5.15;;;2.20;;
61785;SDS011;47692;53.714;11.372;2023-11-22T10:39:59;3.38;;;1.92;;
61785;SDS011;47692;53.714;11.372;2023-11-22T10:42:25;2.95;;;1.90;;
61785;SDS011;47692;53.714;11.372;2023-11-22T10:44:54;3.97;;;2.30;;
61785;SDS011;47692;53.714;11.372;2023-11-22T10:47:23;3.40;;;1.80;;
61785;SDS011;47692;53.714;11.372;2023-11-22T10:49:52;2.85;;;1.80;;
61785;SDS011;47692;53.714;11.372;2023-11-22T10:52:18;3.40;;;1.80;;
61785;SDS011;47692;53.714;11.372;2023-11-22T10:54:49;3.28;;;1.73;;
61785;SDS011;47692;53.714;11.372;2023-11-22T10:57:20;3.42;;;1.90;;
61785;SDS011;47692;53.714;11.372;2023-11-22T10:59:53;2.85;;;1.77;;
61785;SDS011;47692;53.714;11.372;2023-11-22T11:02:19;3.10;;;1.50;;
61785;SDS011;47692;53.714;11.372;2023-11-22T11:05:02;2.33;;;1.10;;
61785;SDS011;47692;53.714;11.372;2023-11-22T11:07:37;1.63;;;1.10;;
61785;SDS011;47692;53.714;11.372;2023-11-22T11:10:07;2.20;;;1.38;;
61785;SDS011;47692;53.714;11.372;2023-11-22T11:12:33;2.58;;;1.40;;
61785;SDS011;47692;53.714;11.372;2023-11-22T11:14:58;4.18;;;1.67;;
61785;SDS011;47692;53.714;11.372;2023-11-22T11:17:24;2.28;;;1.30;;
61785;SDS011;47692;53.714;11.372;2023-11-22T11:19:50;3.58;;;1.80;;
61785;SDS011;47692;53.714;11.372;2023-11-22T11:22:16;2.60;;;1.55;;
61785;SDS011;47692;53.714;11.372;2023-11-22T11:24:46;3.13;;;1.80;;
61785;SDS011;47692;53.714;11.372;2023-11-22T11:27:13;4.72;;;2.65;;
61785;SDS011;47692;53.714;11.372;2023-11-22T11:29:38;3.78;;;2.40;;
61785;SDS011;47692;53.714;11.372;2023-11-22T11:32:12;4.60;;;2.08;;
61785;SDS011;47692;53.714;11.372;2023-11-22T11:34:54;4.43;;;2.53;;
61785;SDS011;47692;53.714;11.372;2023-11-22T11:37:21;4.13;;;2.72;;
61785;SDS011;47692;53.714;11.372;2023-11-22T11:39:46;2.70;;;1.90;;
61785;SDS011;47692;53.714;11.372;2023-11-22T11:42:12;5.28;;;3.22;;
61785;SDS011;47692;53.714;11.372;2023-11-22T11:44:50;7.00;;;2.67;;
61785;SDS011;47692;53.714;11.372;2023-11-22T11:47:22;4.72;;;2.60;;
61785;SDS011;47692;53.714;11.372;2023-11-22T11:49:49;2.53;;;1.33;;
61785;SDS011;47692;53.714;11.372;2023-11-22T11:52:17;2.67;;;1.40;;
61785;SDS011;47692;53.714;11.372;2023-11-22T11:54:43;2.53;;;1.20;;
61785;SDS011;47692;53.714;11.372;2023-11-22T11:57:09;2.72;;;1.55;;
61785;SDS011;47692;53.714;11.372;2023-11-22T11:59:35;5.03;;;2.13;;
61785;SDS011;47692;53.714;11.372;2023-11-22T12:02:01;3.75;;;2.25;;
61785;SDS011;47692;53.714;11.372;2023-11-22T12:04:30;2.80;;;1.38;;
61785;SDS011;47692;53.714;11.372;2023-11-22T12:06:57;2.33;;;1.50;;
61785;SDS011;47692;53.714;11.372;2023-11-22T12:09:23;2.33;;;1.30;;
61785;SDS011;47692;53.714;11.372;2023-11-22T12:11:53;3.17;;;1.42;;
61785;SDS011;47692;53.714;11.372;2023-11-22T12:14:19;2.63;;;1.40;;
61785;SDS011;47692;53.714;11.372;2023-11-22T12:16:46;2.53;;;1.25;;
61785;SDS011;47692;53.714;11.372;2023-11-22T12:19:21;2.00;;;1.48;;
61785;SDS011;47692;53.714;11.372;2023-11-22T12:21:48;3.63;;;1.65;;
61785;SDS011;47692;53.714;11.372;2023-11-22T12:24:14;6.00;;;1.95;;
61785;SDS011;47692;53.714;11.372;2023-11-22T12:26:44;3.08;;;1.98;;
61785;SDS011;47692;53.714;11.372;2023-11-22T12:29:11;3.03;;;1.90;;
61785;SDS011;47692;53.714;11.372;2023-11-22T12:31:48;3.70;;;1.50;;
61785;SDS011;47692;53.714;11.372;2023-11-22T12:34:20;3.65;;;2.08;;
61785;SDS011;47692;53.714;11.372;2023-11-22T12:36:47;2.83;;;1.58;;
61785;SDS011;47692;53.714;11.372;2023-11-22T12:39:13;2.85;;;1.50;;
61785;SDS011;47692;53.714;11.372;2023-11-22T12:41:48;4.72;;;2.00;;
61785;SDS011;47692;53.714;11.372;2023-11-22T12:44:16;3.95;;;1.73;;
61785;SDS011;47692;53.714;11.372;2023-11-22T12:46:45;3.53;;;1.83;;
61785;SDS011;47692;53.714;11.372;2023-11-22T12:49:24;3.70;;;1.55;;
61785;SDS011;47692;53.714;11.372;2023-11-22T12:51:54;5.45;;;2.30;;
61785;SDS011;47692;53.714;11.372;2023-11-22T12:54:22;3.75;;;1.55;;
61785;SDS011;47692;53.714;11.372;2023-11-22T12:56:51;7.88;;;3.70;;
61785;SDS011;47692;53.714;11.372;2023-11-22T12:59:24;8.35;;;3.67;;
61785;SDS011;47692;53.714;11.372;2023-11-22T13:01:53;5.93;;;2.90;;
61785;SDS011;47692;53.714;11.372;2023-11-22T13:04:19;9.52;;;3.25;;
61785;SDS011;47692;53.714;11.372;2023-11-22T13:06:45;3.35;;;1.90;;
61785;SDS011;47692;53.714;11.372;2023-11-22T13:09:10;11.88;;;5.82;;
61785;SDS011;47692;53.714;11.372;2023-11-22T13:11:41;6.38;;;3.35;;
61785;SDS011;47692;53.714;11.372;2023-11-22T13:14:07;3.95;;;2.50;;
61785;SDS011;47692;53.714;11.372;2023-11-22T13:16:33;3.88;;;1.85;;
61785;SDS011;47692;53.714;11.372;2023-11-22T13:18:59;2.95;;;1.80;;
61785;SDS011;47692;53.714;11.372;2023-11-22T13:21:25;4.78;;;2.10;;
61785;SDS011;47692;53.714;11.372;2023-11-22T13:23:51;3.67;;;1.80;;
61785;SDS011;47692;53.714;11.372;2023-11-22T13:26:17;3.63;;;2.20;;
61785;SDS011;47692;53.714;11.372;2023-11-22T13:28:42;4.18;;;1.95;;
61785;SDS011;47692;53.714;11.372;2023-11-22T13:31:08;3.15;;;2.15;;
61785;SDS011;47692;53.714;11.372;2023-11-22T13:33:34;5.15;;;1.90;;
61785;SDS011;47692;53.714;11.372;2023-11-22T13:36:00;3.75;;;1.88;;
61785;SDS011;47692;53.714;11.372;2023-11-22T13:38:25;3.22;;;2.00;;
61785;SDS011;47692;53.714;11.372;2023-11-22T13:40:51;3.38;;;1.70;;
61785;SDS011;47692;53.714;11.372;2023-11-22T13:43:17;4.63;;;1.85;;
61785;SDS011;47692;53.714;11.372;2023-11-22T13:45:44;2.88;;;1.80;;
61785;SDS011;47692;53.714;11.372;2023-11-22T13:48:10;3.72;;;2.00;;
61785;SDS011;47692;53.714;11.372;2023-11-22T13:50:36;3.17;;;1.60;;
61785;SDS011;47692;53.714;11.372;2023-11-22T13:53:02;3.72;;;1.80;;
61785;SDS011;47692;53.714;11.372;2023-11-22T13:55:29;3.88;;;1.92;;
61785;SDS011;47692;53.714;11.372;2023-11-22T13:57:56;4.32;;;2.38;;
61785;SDS011;47692;53.714;11.372;2023-11-22T14:00:23;6.18;;;2.05;;
61785;SDS011;47692;53.714;11.372;2023-11-22T14:02:52;3.70;;;2.10;;
61785;SDS011;47692;53.714;11.372;2023-11-22T14:05:24;4.07;;;1.92;;
61785;SDS011;47692;53.714;11.372;2023-11-22T14:07:51;4.70;;;2.38;;
61785;SDS011;47692;53.714;11.372;2023-11-22T14:10:17;4.65;;;2.60;;
61785;SDS011;47692;53.714;11.372;2023-11-22T14:12:44;4.90;;;2.58;;
61785;SDS011;47692;53.714;11.372;2023-11-22T14:15:11;4.65;;;2.75;;
61785;SDS011;47692;53.714;11.372;2023-11-22T14:17:37;4.60;;;2.05;;
61785;SDS011;47692;53.714;11.372;2023-11-22T14:20:06;4.38;;;2.08;;
61785;SDS011;47692;53.714;11.372;2023-11-22T14:22:34;13.80;;;5.53;;
61785;SDS011;47692;53.714;11.372;2023-11-22T14:25:00;6.18;;;2.72;;
61785;SDS011;47692;53.714;11.372;2023-11-22T14:27:26;3.03;;;1.85;;
61785;SDS011;47692;53.714;11.372;2023-11-22T14:29:53;3.90;;;1.90;;
61785;SDS011;47692;53.714;11.372;2023-11-22T14:32:19;5.13;;;2.25;;
61785;SDS011;47692;53.714;11.372;2023-11-22T14:34:45;3.47;;;2.10;;
61785;SDS011;47692;53.714;11.372;2023-11-22T14:37:11;4.88;;;2.25;;